createdAt,value
2023-05-10T00:01:25.341Z,6.63
2023-05-10T00:03:53.363Z,5.70
2023-05-10T00:06:21.562Z,5.80
2023-05-10T00:08:49.460Z,6.88
2023-05-10T00:11:17.357Z,6.60
2023-05-10T00:13:46.249Z,7.45
2023-05-10T00:16:14.835Z,8.23
2023-05-10T00:18:42.842Z,6.72
2023-05-10T00:21:10.929Z,8.65
2023-05-10T00:23:39.134Z,6.03
2023-05-10T00:26:06.995Z,7.38
2023-05-10T00:28:35.038Z,5.97
2023-05-10T00:31:04.634Z,7.65
2023-05-10T00:33:32.457Z,6.65
2023-05-10T00:36:00.699Z,8.85
2023-05-10T00:38:28.747Z,5.97
2023-05-10T00:40:57.260Z,6.43
2023-05-10T00:43:31.077Z,6.03
2023-05-10T00:45:59.077Z,6.40
2023-05-10T00:48:27.048Z,7.00
2023-05-10T00:50:55.384Z,6.60
2023-05-10T00:53:23.363Z,6.13
2023-05-10T00:55:52.124Z,5.95
2023-05-10T00:58:20.760Z,7.18
2023-05-10T01:00:50.255Z,6.55
2023-05-10T01:03:18.402Z,7.70
2023-05-10T01:05:46.774Z,6.40
2023-05-10T01:08:15.270Z,6.90
2023-05-10T01:10:45.173Z,7.38
2023-05-10T01:13:14.618Z,7.15
2023-05-10T01:15:42.738Z,7.13
2023-05-10T01:18:11.086Z,7.32
2023-05-10T01:20:50.121Z,6.90
2023-05-10T01:23:29.745Z,6.88
2023-05-10T01:26:16.402Z,6.38
2023-05-10T01:29:08.938Z,6.13
2023-05-10T01:31:59.636Z,5.43
2023-05-10T01:34:59.792Z,7.00
2023-05-10T01:37:43.651Z,7.40
2023-05-10T01:40:30.525Z,6.97
2023-05-10T01:43:05.396Z,8.75
2023-05-10T01:45:38.876Z,6.03
2023-05-10T01:48:15.271Z,7.93
2023-05-10T01:50:47.640Z,6.85
2023-05-10T01:53:21.314Z,6.93
2023-05-10T01:55:53.754Z,6.65
2023-05-10T01:58:32.864Z,6.82
2023-05-10T02:01:04.768Z,8.38
2023-05-10T02:06:02.641Z,7.90
2023-05-10T02:08:31.281Z,6.50
2023-05-10T02:11:00.556Z,7.03
2023-05-10T02:13:30.735Z,6.75
2023-05-10T02:16:00.360Z,7.90
2023-05-10T02:18:29.559Z,7.35
2023-05-10T02:20:59.043Z,6.65
2023-05-10T02:23:28.443Z,6.93
2023-05-10T02:26:01.338Z,6.68
2023-05-10T02:30:58.165Z,6.45
2023-05-10T02:33:28.164Z,6.90
2023-05-10T02:35:57.339Z,8.48
2023-05-10T02:38:26.504Z,8.90
2023-05-10T02:40:57.880Z,8.55
2023-05-10T02:43:26.840Z,8.37
2023-05-10T02:45:54.921Z,7.15
2023-05-10T02:48:23.093Z,6.90
2023-05-10T02:50:53.557Z,8.05
2023-05-10T02:53:29.770Z,7.80
2023-05-10T02:56:08.142Z,8.70
2023-05-10T02:58:36.663Z,7.30
2023-05-10T03:01:05.322Z,10.10
2023-05-10T03:03:33.423Z,6.03
2023-05-10T03:06:01.586Z,7.85
2023-05-10T03:08:33.002Z,7.72
2023-05-10T03:11:57.944Z,8.27
2023-05-10T03:14:45.066Z,7.38
2023-05-10T03:17:57.917Z,7.60
2023-05-10T03:20:44.673Z,7.20
2023-05-10T03:23:26.029Z,7.10
2023-05-10T03:25:54.610Z,6.63
2023-05-10T03:28:26.049Z,8.23
2023-05-10T03:30:55.756Z,6.18
2023-05-10T03:33:24.061Z,7.75
2023-05-10T03:35:52.199Z,7.15
2023-05-10T03:38:20.327Z,7.32
2023-05-10T03:40:48.641Z,7.40
2023-05-10T03:43:16.592Z,5.97
2023-05-10T03:45:44.619Z,7.53
2023-05-10T03:48:14.787Z,8.45
2023-05-10T03:50:44.021Z,7.43
2023-05-10T03:53:13.464Z,7.53
2023-05-10T03:55:41.397Z,7.13
2023-05-10T03:58:12.968Z,7.65
2023-05-10T04:00:46.269Z,5.60
2023-05-10T04:03:15.596Z,6.13
2023-05-10T04:05:43.712Z,7.20
2023-05-10T04:08:11.845Z,8.13
2023-05-10T04:10:40.837Z,7.05
2023-05-10T04:13:09.249Z,7.97
2023-05-10T04:15:37.665Z,6.78
2023-05-10T04:18:07.986Z,6.70
2023-05-10T04:20:37.611Z,7.00
2023-05-10T04:23:05.602Z,6.60
2023-05-10T04:25:36.627Z,6.47
2023-05-10T04:28:05.552Z,7.95
2023-05-10T04:30:34.884Z,5.75
2023-05-10T04:33:05.754Z,7.57
2023-05-10T04:35:33.906Z,6.28
2023-05-10T04:38:01.861Z,6.97
2023-05-10T04:40:29.839Z,6.22
2023-05-10T04:42:57.906Z,5.68
2023-05-10T04:45:25.870Z,5.70
2023-05-10T04:47:53.874Z,5.95
2023-05-10T04:50:22.042Z,5.28
2023-05-10T04:52:50.170Z,4.72
2023-05-10T04:55:18.300Z,4.68
2023-05-10T04:57:46.623Z,3.65
2023-05-10T05:00:15.580Z,4.13
2023-05-10T05:02:47.442Z,4.05
2023-05-10T05:05:15.681Z,3.75
2023-05-10T05:07:43.843Z,3.25
2023-05-10T05:10:11.878Z,3.75
2023-05-10T05:12:40.174Z,3.63
2023-05-10T05:15:12.572Z,3.95
2023-05-10T05:18:30.952Z,3.60
2023-05-10T05:20:59.303Z,2.95
2023-05-10T05:23:27.533Z,2.95
2023-05-10T05:25:55.893Z,3.10
2023-05-10T05:28:24.471Z,2.78
2023-05-10T05:30:53.773Z,2.50
2023-05-10T05:33:21.972Z,2.90
2023-05-10T05:35:52.178Z,2.72
2023-05-10T05:38:20.475Z,2.55
2023-05-10T05:40:48.746Z,2.65
2023-05-10T05:43:17.493Z,2.50
2023-05-10T05:45:45.789Z,2.28
2023-05-10T05:48:13.990Z,3.08
2023-05-10T05:50:42.486Z,2.53
2023-05-10T05:53:10.878Z,2.58
2023-05-10T05:55:39.066Z,3.00
2023-05-10T05:58:07.472Z,3.00
2023-05-10T06:00:36.576Z,2.83
2023-05-10T06:03:05.073Z,2.42
2023-05-10T06:05:33.511Z,2.38
2023-05-10T06:08:02.307Z,2.42
2023-05-10T06:10:30.209Z,2.70
2023-05-10T06:12:58.612Z,2.65
2023-05-10T06:15:27.142Z,2.40
2023-05-10T06:17:55.504Z,2.50
2023-05-10T06:20:25.722Z,2.15
2023-05-10T06:22:53.786Z,3.00
2023-05-10T06:25:21.797Z,2.33
2023-05-10T06:27:53.900Z,2.45
2023-05-10T06:30:24.287Z,2.72
2023-05-10T06:32:53.054Z,2.75
2023-05-10T06:35:21.205Z,2.30
2023-05-10T06:37:49.433Z,2.63
2023-05-10T06:40:17.966Z,3.00
2023-05-10T06:42:47.603Z,2.30
2023-05-10T06:45:17.096Z,2.55
2023-05-10T06:47:45.882Z,2.45
2023-05-10T06:50:14.221Z,2.10
2023-05-10T06:52:42.418Z,2.40
2023-05-10T06:55:11.172Z,2.42
2023-05-10T06:57:39.137Z,2.00
2023-05-10T07:00:08.096Z,2.30
2023-05-10T07:02:36.706Z,2.58
2023-05-10T07:05:05.010Z,2.65
2023-05-10T07:07:33.722Z,2.33
2023-05-10T07:10:02.058Z,2.90
2023-05-10T07:12:30.520Z,1.85
2023-05-10T07:14:58.438Z,2.75
2023-05-10T07:17:27.111Z,2.38
2023-05-10T07:19:55.150Z,2.83
2023-05-10T07:22:23.157Z,2.53
2023-05-10T07:24:51.379Z,2.55
2023-05-10T07:27:19.363Z,1.80
2023-05-10T07:29:47.734Z,2.45
2023-05-10T07:32:16.017Z,2.15
2023-05-10T07:34:44.047Z,2.33
2023-05-10T07:37:12.534Z,3.53
2023-05-10T07:39:40.879Z,2.83
2023-05-10T07:42:09.362Z,2.42
2023-05-10T07:44:37.450Z,2.53
2023-05-10T07:47:05.838Z,2.05
2023-05-10T07:49:33.769Z,1.75
2023-05-10T07:52:01.850Z,2.55
2023-05-10T07:54:30.175Z,2.25
2023-05-10T07:56:58.121Z,2.92
2023-05-10T07:59:26.216Z,3.33
2023-05-10T08:01:54.993Z,2.75
2023-05-10T08:04:23.479Z,2.85
2023-05-10T08:06:51.589Z,3.40
2023-05-10T08:09:25.166Z,2.92
2023-05-10T08:11:53.554Z,2.67
2023-05-10T08:14:21.930Z,3.22
2023-05-10T08:16:50.086Z,2.58
2023-05-10T08:19:20.629Z,3.30
2023-05-10T08:24:17.716Z,3.92
2023-05-10T08:26:45.771Z,3.33
2023-05-10T08:29:14.472Z,4.85
2023-05-10T08:31:43.124Z,4.35
2023-05-10T08:34:11.347Z,4.30
2023-05-10T08:36:39.716Z,4.07
2023-05-10T08:39:16.239Z,5.72
2023-05-10T08:41:55.275Z,3.72
2023-05-10T08:44:23.531Z,3.65
2023-05-10T08:46:54.839Z,3.83
2023-05-10T08:49:23.972Z,4.10
2023-05-10T08:51:57.073Z,3.55
2023-05-10T08:54:26.184Z,4.93
2023-05-10T08:56:54.626Z,4.05
2023-05-10T08:59:23.448Z,4.70
2023-05-10T09:01:54.708Z,4.95
2023-05-10T09:04:22.891Z,4.68
2023-05-10T09:06:50.878Z,4.95
2023-05-10T09:09:20.792Z,5.00
2023-05-10T09:11:49.291Z,4.75
2023-05-10T09:14:18.401Z,4.47
2023-05-10T09:16:46.750Z,4.10
2023-05-10T09:19:14.771Z,4.68
2023-05-10T09:21:43.331Z,4.88
2023-05-10T09:24:11.342Z,5.43
2023-05-10T09:26:51.831Z,6.05
2023-05-10T09:29:20.906Z,5.95
2023-05-10T09:31:53.534Z,4.63
2023-05-10T09:34:32.572Z,3.92
2023-05-10T09:37:05.415Z,5.00
2023-05-10T09:39:36.111Z,4.22
2023-05-10T09:42:11.619Z,6.72
2023-05-10T09:44:40.672Z,4.57
2023-05-10T09:47:09.060Z,6.32
2023-05-10T09:49:37.183Z,4.30
2023-05-10T09:52:08.802Z,5.47
2023-05-10T09:57:05.296Z,5.18
2023-05-10T09:59:36.372Z,4.95
2023-05-10T10:02:04.580Z,5.05
2023-05-10T10:04:32.821Z,4.22
2023-05-10T10:07:04.292Z,5.97
2023-05-10T10:09:33.685Z,3.80
2023-05-10T10:12:03.189Z,6.75
2023-05-10T10:14:31.922Z,4.60
2023-05-10T10:19:36.734Z,5.38
2023-05-10T10:22:06.571Z,7.38
2023-05-10T10:24:35.008Z,4.03
2023-05-10T10:27:35.567Z,5.28
2023-05-10T10:30:38.720Z,5.80
2023-05-10T10:33:50.321Z,5.93
2023-05-10T10:36:18.336Z,4.53
2023-05-10T10:38:49.091Z,4.13
2023-05-10T10:41:44.531Z,4.77
2023-05-10T10:44:47.710Z,4.68
2023-05-10T10:47:20.230Z,4.28
2023-05-10T10:50:05.932Z,5.75
2023-05-10T10:52:41.114Z,3.70
2023-05-10T10:55:15.592Z,5.40
2023-05-10T10:58:06.818Z,4.13
2023-05-10T11:00:38.554Z,3.92
2023-05-10T11:03:20.243Z,5.13
2023-05-10T11:05:49.928Z,4.13
2023-05-10T11:08:32.277Z,3.60
2023-05-10T11:11:00.507Z,4.68
2023-05-10T11:13:36.349Z,4.75
2023-05-10T11:16:28.219Z,4.95
2023-05-10T11:19:08.349Z,5.07
2023-05-10T11:22:14.606Z,5.47
2023-05-10T11:24:59.848Z,5.80
2023-05-10T11:27:28.792Z,6.28
2023-05-10T11:29:56.825Z,4.47
2023-05-10T11:32:25.268Z,5.75
2023-05-10T11:34:54.642Z,6.03
2023-05-10T11:37:25.126Z,5.53
2023-05-10T11:39:56.429Z,4.47
2023-05-10T11:42:24.988Z,7.75
2023-05-10T11:44:54.241Z,6.15
2023-05-10T11:47:23.459Z,4.70
2023-05-10T11:49:53.222Z,4.32
2023-05-10T11:52:21.455Z,4.40
2023-05-10T11:54:54.261Z,4.80
2023-05-10T11:57:28.195Z,5.50
2023-05-10T11:59:58.424Z,5.85
2023-05-10T12:02:27.304Z,6.85
2023-05-10T12:04:57.565Z,6.25
2023-05-10T12:07:27.758Z,4.38
2023-05-10T12:10:17.656Z,7.35
2023-05-10T12:12:49.549Z,4.63
2023-05-10T12:15:26.074Z,4.85
2023-05-10T12:17:54.529Z,4.20
2023-05-10T12:20:25.453Z,4.43
2023-05-10T12:22:58.284Z,4.97
2023-05-10T12:25:33.164Z,4.18
2023-05-10T12:28:06.467Z,7.45
2023-05-10T12:30:37.129Z,5.00
2023-05-10T12:33:19.041Z,5.97
2023-05-10T12:35:54.368Z,4.43
2023-05-10T12:38:35.557Z,5.10
2023-05-10T12:41:10.047Z,5.55
2023-05-10T12:43:40.282Z,5.97
2023-05-10T12:46:14.055Z,5.97
2023-05-10T12:48:45.161Z,6.32
2023-05-10T12:51:16.694Z,4.60
2023-05-10T12:53:49.361Z,4.50
2023-05-10T12:56:18.090Z,5.22
2023-05-10T12:58:49.422Z,4.07
2023-05-10T13:01:17.485Z,5.00
2023-05-10T13:03:46.307Z,5.43
2023-05-10T13:06:15.511Z,6.13
2023-05-10T13:08:43.655Z,4.03
2023-05-10T13:11:12.070Z,6.32
2023-05-10T13:13:40.318Z,4.35
2023-05-10T13:16:08.617Z,5.75
2023-05-10T13:18:37.074Z,5.30
2023-05-10T13:21:06.738Z,5.88
2023-05-10T13:23:35.874Z,4.53
2023-05-10T13:26:04.208Z,7.25
2023-05-10T13:28:32.696Z,4.55
2023-05-10T13:31:01.389Z,7.50
2023-05-10T13:33:29.547Z,4.45
2023-05-10T13:35:57.722Z,5.60
2023-05-10T13:38:25.905Z,5.75
2023-05-10T13:40:54.184Z,5.30
2023-05-10T13:43:22.312Z,4.97
2023-05-10T13:45:50.311Z,4.72
2023-05-10T13:48:18.513Z,4.90
2023-05-10T13:50:47.417Z,4.70
2023-05-10T13:53:15.720Z,5.05
2023-05-10T13:55:44.080Z,6.63
2023-05-10T13:58:12.397Z,7.35
2023-05-10T14:00:40.410Z,5.10
2023-05-10T14:03:10.576Z,5.95
2023-05-10T14:05:38.812Z,4.38
2023-05-10T14:08:06.974Z,5.70
2023-05-10T14:10:35.064Z,4.70
2023-05-10T14:13:04.577Z,5.65
2023-05-10T14:15:32.641Z,4.68
2023-05-10T14:18:01.670Z,6.93
2023-05-10T14:20:30.288Z,5.25
2023-05-10T14:22:58.520Z,5.20
2023-05-10T14:25:27.052Z,5.80
2023-05-10T14:27:55.830Z,3.95
2023-05-10T14:30:23.984Z,4.45
2023-05-10T14:32:52.138Z,4.43
2023-05-10T14:35:21.419Z,4.22
2023-05-10T14:37:49.896Z,4.68
2023-05-10T14:40:18.255Z,4.72
2023-05-10T14:42:46.384Z,4.50
2023-05-10T14:45:14.917Z,7.22
2023-05-10T14:47:43.175Z,5.10
2023-05-10T14:50:16.638Z,6.13
2023-05-10T14:52:53.496Z,5.38
2023-05-10T14:55:21.751Z,6.10
2023-05-10T14:57:51.646Z,5.60
2023-05-10T15:00:20.509Z,6.57
2023-05-10T15:02:49.758Z,6.47
2023-05-10T15:05:19.006Z,5.55
2023-05-10T15:07:47.698Z,5.72
2023-05-10T15:10:16.873Z,7.18
2023-05-10T15:12:44.953Z,5.88
2023-05-10T15:15:13.110Z,6.35
2023-05-10T15:17:43.208Z,4.60
2023-05-10T15:20:14.398Z,5.97
2023-05-10T15:22:42.740Z,4.75
2023-05-10T15:25:11.272Z,5.78
2023-05-10T15:27:39.772Z,5.20
2023-05-10T15:30:08.898Z,6.10
2023-05-10T15:32:37.481Z,4.70
2023-05-10T15:35:06.499Z,4.72
2023-05-10T15:37:34.948Z,3.35
2023-05-10T15:40:06.475Z,5.80
2023-05-10T15:45:02.880Z,6.03
2023-05-10T15:47:32.232Z,4.93
2023-05-10T15:50:00.449Z,5.88
2023-05-10T15:52:28.494Z,4.53
2023-05-10T15:54:56.707Z,4.78
2023-05-10T15:57:24.846Z,6.15
2023-05-10T15:59:53.699Z,4.90
2023-05-10T16:02:22.903Z,5.22
2023-05-10T16:04:51.841Z,4.55
2023-05-10T16:07:20.035Z,5.28
2023-05-10T16:09:49.657Z,4.65
2023-05-10T16:12:17.756Z,4.45
2023-05-10T16:14:46.565Z,5.32
2023-05-10T16:17:15.682Z,7.00
2023-05-10T16:19:43.958Z,5.10
2023-05-10T16:22:12.131Z,6.55
2023-05-10T16:24:40.805Z,5.78
2023-05-10T16:27:08.832Z,6.25
2023-05-10T16:29:36.956Z,4.45
2023-05-10T16:32:05.292Z,7.72
2023-05-10T16:34:33.309Z,5.00
2023-05-10T16:37:01.620Z,6.68
2023-05-10T16:39:29.818Z,4.70
2023-05-10T16:41:58.124Z,5.38
2023-05-10T16:44:26.311Z,4.93
2023-05-10T16:46:55.355Z,4.60
2023-05-10T16:49:25.315Z,6.45
2023-05-10T16:51:54.660Z,4.75
2023-05-10T16:54:23.056Z,5.05
2023-05-10T16:56:51.068Z,4.70
2023-05-10T16:59:20.721Z,5.53
2023-05-10T17:01:50.413Z,5.00
2023-05-10T17:04:18.519Z,5.00
2023-05-10T17:06:47.907Z,5.78
2023-05-10T17:09:17.140Z,5.57
2023-05-10T17:11:46.880Z,5.78
2023-05-10T17:14:15.204Z,6.22
2023-05-10T17:16:43.928Z,5.85
2023-05-10T17:19:12.098Z,7.63
2023-05-10T17:21:40.608Z,7.10
2023-05-10T17:24:10.618Z,6.68
2023-05-10T17:26:38.959Z,5.25
2023-05-10T17:29:09.783Z,6.82
2023-05-10T17:31:38.144Z,5.20
2023-05-10T17:34:06.713Z,6.43
2023-05-10T17:36:38.910Z,6.10
2023-05-10T17:39:08.028Z,7.70
2023-05-10T17:41:37.286Z,4.90
2023-05-10T17:44:05.438Z,5.32
2023-05-10T17:46:33.737Z,5.82
2023-05-10T17:49:01.870Z,6.60
2023-05-10T17:51:30.099Z,4.97
2023-05-10T17:53:58.649Z,5.65
2023-05-10T17:56:27.259Z,7.10
2023-05-10T17:58:55.631Z,4.82
2023-05-10T18:01:23.965Z,5.25
2023-05-10T18:03:53.029Z,5.22
2023-05-10T18:06:21.903Z,5.65
2023-05-10T18:08:52.618Z,5.30
2023-05-10T18:11:21.943Z,5.82
2023-05-10T18:13:50.899Z,5.43
2023-05-10T18:16:22.261Z,5.80
2023-05-10T18:18:50.976Z,6.15
2023-05-10T18:21:19.361Z,7.10
2023-05-10T18:23:48.127Z,5.15
2023-05-10T18:26:18.463Z,4.97
2023-05-10T18:28:48.404Z,6.72
2023-05-10T18:31:18.377Z,5.90
2023-05-10T18:33:47.015Z,6.75
2023-05-10T18:36:17.234Z,6.15
2023-05-10T18:38:46.460Z,6.35
2023-05-10T18:41:15.065Z,7.70
2023-05-10T18:43:43.335Z,5.68
2023-05-10T18:46:11.995Z,7.30
2023-05-10T18:48:40.828Z,5.70
2023-05-10T18:51:09.019Z,7.15
2023-05-10T18:53:37.933Z,5.38
2023-05-10T18:56:07.360Z,6.97
2023-05-10T18:58:36.288Z,4.53
2023-05-10T19:01:04.933Z,6.45
2023-05-10T19:03:33.502Z,5.82
2023-05-10T19:06:01.489Z,6.55
2023-05-10T19:08:30.494Z,6.10
2023-05-10T19:10:58.944Z,6.47
2023-05-10T19:13:28.471Z,5.38
2023-05-10T19:16:14.102Z,6.35
2023-05-10T19:18:45.160Z,6.35
2023-05-10T19:21:17.333Z,6.80
2023-05-10T19:23:47.528Z,6.10
2023-05-10T19:26:15.967Z,6.28
2023-05-10T19:28:44.134Z,5.93
2023-05-10T19:31:12.335Z,6.68
2023-05-10T19:33:40.858Z,6.47
2023-05-10T19:36:09.235Z,7.05
2023-05-10T19:38:38.153Z,7.10
2023-05-10T19:41:06.740Z,7.00
2023-05-10T19:43:37.565Z,5.35
2023-05-10T19:46:07.076Z,6.70
2023-05-10T19:48:35.552Z,5.78
2023-05-10T19:51:07.826Z,7.45
2023-05-10T19:53:36.957Z,5.35
2023-05-10T19:56:07.281Z,7.28
2023-05-10T19:58:35.600Z,5.28
2023-05-10T20:01:06.053Z,7.45
2023-05-10T20:03:35.665Z,5.35
2023-05-10T20:06:04.525Z,7.63
2023-05-10T20:08:33.012Z,6.22
2023-05-10T20:11:04.486Z,7.80
2023-05-10T20:13:34.487Z,8.20
2023-05-10T20:16:03.957Z,6.40
2023-05-10T20:18:32.056Z,5.90
2023-05-10T20:21:01.571Z,6.97
2023-05-10T20:23:29.805Z,4.95
2023-05-10T20:25:58.478Z,6.45
2023-05-10T20:28:27.273Z,6.47
2023-05-10T20:30:56.308Z,6.38
2023-05-10T20:33:25.592Z,7.63
2023-05-10T20:35:53.711Z,7.97
2023-05-10T20:38:22.001Z,5.63
2023-05-10T20:40:49.926Z,6.60
2023-05-10T20:43:19.079Z,5.82
2023-05-10T20:45:47.949Z,8.18
2023-05-10T20:48:17.124Z,6.45
2023-05-10T20:50:45.437Z,5.85
2023-05-10T20:53:18.616Z,7.75
2023-05-10T20:55:47.010Z,6.35
2023-05-10T20:58:15.401Z,7.20
2023-05-10T21:00:43.751Z,6.45
2023-05-10T21:03:12.388Z,8.38
2023-05-10T21:05:40.795Z,6.40
2023-05-10T21:08:08.922Z,8.40
2023-05-10T21:10:37.341Z,6.22
2023-05-10T21:13:05.544Z,7.15
2023-05-10T21:15:33.510Z,7.03
2023-05-10T21:18:02.145Z,8.10
2023-05-10T21:20:31.272Z,4.80
2023-05-10T21:22:59.298Z,6.47
2023-05-10T21:25:27.636Z,6.95
2023-05-10T21:27:56.148Z,6.05
2023-05-10T21:30:24.450Z,7.28
2023-05-10T21:32:54.035Z,5.65
2023-05-10T21:35:22.056Z,6.68
2023-05-10T21:37:50.215Z,5.95
2023-05-10T21:40:20.479Z,6.57
2023-05-10T21:42:52.634Z,6.68
2023-05-10T21:45:21.016Z,7.15
2023-05-10T21:47:49.436Z,6.88
2023-05-10T21:50:18.373Z,6.85
2023-05-10T21:52:46.803Z,6.75
2023-05-10T21:55:15.746Z,6.65
2023-05-10T21:57:44.948Z,6.82
2023-05-10T22:00:14.065Z,8.73
2023-05-10T22:02:42.729Z,7.72
2023-05-10T22:05:11.553Z,9.00
2023-05-10T22:07:40.435Z,5.90
2023-05-10T22:10:09.657Z,7.10
2023-05-10T22:12:38.129Z,6.32
2023-05-10T22:15:10.329Z,6.88
2023-05-10T22:17:40.548Z,6.15
2023-05-10T22:20:10.062Z,8.27
2023-05-10T22:22:38.114Z,7.00
2023-05-10T22:25:07.787Z,7.72
2023-05-10T22:27:36.302Z,6.03
2023-05-10T22:30:06.129Z,8.13
2023-05-10T22:32:34.314Z,5.53
2023-05-10T22:35:04.448Z,7.38
2023-05-10T22:37:32.336Z,6.28
2023-05-10T22:40:00.344Z,7.13
2023-05-10T22:42:28.557Z,6.25
2023-05-10T22:44:56.634Z,6.60
2023-05-10T22:47:24.560Z,6.65
2023-05-10T22:49:52.557Z,6.60
2023-05-10T22:52:20.549Z,6.45
2023-05-10T22:54:48.902Z,6.43
2023-05-10T22:57:17.490Z,5.97
2023-05-10T22:59:45.493Z,6.57
2023-05-10T23:02:14.388Z,7.35
2023-05-10T23:04:42.921Z,6.72
2023-05-10T23:07:11.572Z,8.20
2023-05-10T23:09:39.569Z,5.97
2023-05-10T23:12:08.019Z,8.35
2023-05-10T23:14:35.953Z,6.82
2023-05-10T23:17:03.958Z,8.07
2023-05-10T23:19:31.918Z,5.55
2023-05-10T23:21:59.721Z,8.13
2023-05-10T23:24:27.700Z,7.43
2023-05-10T23:26:55.815Z,7.10
2023-05-10T23:29:26.283Z,6.63
2023-05-10T23:31:54.368Z,5.90
2023-05-10T23:34:22.542Z,6.93
2023-05-10T23:36:50.467Z,7.13
2023-05-10T23:39:18.297Z,6.28
2023-05-10T23:41:46.906Z,5.95
2023-05-10T23:44:14.908Z,5.40
2023-05-10T23:46:42.912Z,6.88
2023-05-10T23:49:11.258Z,8.48
2023-05-10T23:51:39.224Z,5.55
2023-05-10T23:54:07.120Z,8.50
2023-05-10T23:56:35.324Z,7.22
2023-05-10T23:59:03.206Z,7.45
